Time;durP1;ratioP1;P1;durP2;ratioP2;P2;SDS_P1;SDS_P2;PMS_P1;PMS_P2;Temp;Humidity;BMP_temperature;BMP_pressure;BME280_temperature;BME280_humidity;BME280_pressure;Samples;Min_cycle;Max_cycle;Signal;HPM_P1;HPM_P2
2023/02/17 00:02:09;;;;;;;3.40;2.23;;;;;;;;;;5053288;28;20451;-69
2023/02/17 00:04:38;;;;;;;2.60;1.60;;;;;;;;;;5052976;28;20493;-68
2023/02/17 00:07:05;;;;;;;4.00;2.20;;;;;;;;;;5052205;28;20818;-68
2023/02/17 00:09:32;;;;;;;4.60;2.00;;;;;;;;;;5052608;28;20482;-69
2023/02/17 00:12:00;;;;;;;3.50;2.33;;;;;;;;;;5051590;28;20954;-69
2023/02/17 00:14:27;;;;;;;3.63;2.63;;;;;;;;;;5052512;28;20462;-69
2023/02/17 00:16:54;;;;;;;4.07;3.73;;;;;;;;;;5052243;28;20473;-68
2023/02/17 00:19:24;;;;;;;3.20;2.00;;;;;;;;;;5052709;28;20446;-68
2023/02/17 00:21:53;;;;;;;4.97;2.70;;;;;;;;;;5051855;28;20489;-68
2023/02/17 00:24:21;;;;;;;2.63;2.07;;;;;;;;;;5052133;28;20450;-68
2023/02/17 00:26:48;;;;;;;4.17;2.80;;;;;;;;;;5051952;28;20478;-68
2023/02/17 00:29:15;;;;;;;2.73;2.17;;;;;;;;;;5052556;28;20454;-68
2023/02/17 00:31:44;;;;;;;1.97;1.80;;;;;;;;;;5051577;28;20820;-68
2023/02/17 00:34:12;;;;;;;2.77;2.20;;;;;;;;;;5052481;28;20450;-68
2023/02/17 00:36:39;;;;;;;1.87;1.77;;;;;;;;;;5052443;28;20450;-69
2023/02/17 00:39:07;;;;;;;5.80;3.03;;;;;;;;;;5052308;28;20446;-68
2023/02/17 00:41:35;;;;;;;3.90;2.53;;;;;;;;;;5051900;28;20950;-68
2023/02/17 00:44:02;;;;;;;3.27;1.83;;;;;;;;;;5051460;28;20452;-68
2023/02/17 00:46:29;;;;;;;2.63;2.00;;;;;;;;;;5052055;28;20486;-69
2023/02/17 00:48:57;;;;;;;2.70;1.90;;;;;;;;;;5051530;28;20446;-68
2023/02/17 00:51:25;;;;;;;2.57;1.80;;;;;;;;;;5051697;28;20455;-68
2023/02/17 00:53:52;;;;;;;3.10;2.70;;;;;;;;;;5051338;28;21067;-68
2023/02/17 00:56:21;;;;;;;3.20;2.43;;;;;;;;;;5052080;28;20486;-68
2023/02/17 00:58:48;;;;;;;4.67;2.73;;;;;;;;;;5051156;28;21027;-67
2023/02/17 01:01:15;;;;;;;4.10;2.90;;;;;;;;;;5051488;28;20538;-68
2023/02/17 01:03:42;;;;;;;2.30;2.07;;;;;;;;;;5051125;28;20451;-68
2023/02/17 01:06:11;;;;;;;3.53;1.73;;;;;;;;;;5061304;28;20483;-68
2023/02/17 01:08:38;;;;;;;3.47;2.10;;;;;;;;;;5051599;28;20493;-68
2023/02/17 01:11:06;;;;;;;6.73;2.17;;;;;;;;;;5051347;28;20451;-70
2023/02/17 01:13:34;;;;;;;2.00;1.80;;;;;;;;;;5051672;28;20447;-68
2023/02/17 01:16:01;;;;;;;2.20;2.00;;;;;;;;;;5051019;28;20473;-69
2023/02/17 01:18:28;;;;;;;1.60;1.40;;;;;;;;;;5051560;28;20450;-68
2023/02/17 01:20:55;;;;;;;3.23;2.00;;;;;;;;;;5050701;28;20811;-68
2023/02/17 01:23:22;;;;;;;4.50;2.17;;;;;;;;;;5051518;28;20450;-68
2023/02/17 01:25:50;;;;;;;3.80;2.30;;;;;;;;;;5050488;28;20485;-68
2023/02/17 01:28:18;;;;;;;2.80;2.30;;;;;;;;;;5051625;28;20450;-68
2023/02/17 01:30:47;;;;;;;2.23;1.73;;;;;;;;;;5049489;28;20458;-67
2023/02/17 01:33:14;;;;;;;2.50;2.07;;;;;;;;;;5050669;28;20458;-69
2023/02/17 01:35:42;;;;;;;3.47;2.03;;;;;;;;;;5050171;28;20460;-67
2023/02/17 01:38:09;;;;;;;4.13;1.77;;;;;;;;;;5050963;28;20461;-69
2023/02/17 01:40:36;;;;;;;4.80;2.33;;;;;;;;;;5050172;28;20462;-68
2023/02/17 01:43:03;;;;;;;3.07;1.63;;;;;;;;;;5049795;28;20461;-68
2023/02/17 01:45:34;;;;;;;3.20;2.03;;;;;;;;;;5050757;28;20488;-68
2023/02/17 01:48:06;;;;;;;2.07;1.90;;;;;;;;;;5050385;28;20446;-68
2023/02/17 01:50:35;;;;;;;2.70;1.90;;;;;;;;;;5038020;28;20815;-68
2023/02/17 01:53:03;;;;;;;6.10;2.60;;;;;;;;;;5050579;28;20454;-68
2023/02/17 01:55:30;;;;;;;5.00;2.30;;;;;;;;;;5050621;28;20672;-68
2023/02/17 01:57:59;;;;;;;4.67;2.50;;;;;;;;;;5050419;28;20460;-68
2023/02/17 02:00:27;;;;;;;1.97;1.70;;;;;;;;;;5050563;28;20453;-68
2023/02/17 02:02:54;;;;;;;4.20;2.07;;;;;;;;;;5050213;28;20453;-68
2023/02/17 02:05:23;;;;;;;4.70;2.00;;;;;;;;;;5050961;28;20442;-68
2023/02/17 02:07:50;;;;;;;2.20;1.60;;;;;;;;;;5050429;28;20457;-68
2023/02/17 02:10:18;;;;;;;5.83;2.10;;;;;;;;;;5050515;28;20478;-68
2023/02/17 02:12:45;;;;;;;2.83;2.50;;;;;;;;;;5050385;28;20454;-68
2023/02/17 02:15:14;;;;;;;2.80;2.20;;;;;;;;;;5050634;28;20994;-68
2023/02/17 02:17:44;;;;;;;3.60;2.10;;;;;;;;;;5050247;28;20469;-67
2023/02/17 02:20:32;;;;;;;2.57;1.73;;;;;;;;;;5050438;28;20448;-68
2023/02/17 02:23:13;;;;;;;3.13;2.20;;;;;;;;;;5036963;28;20438;-68
2023/02/17 02:25:48;;;;;;;3.20;2.00;;;;;;;;;;5050005;28;20485;-66
2023/02/17 02:28:21;;;;;;;4.70;2.00;;;;;;;;;;5050828;28;20469;-68
2023/02/17 02:31:03;;;;;;;3.47;2.03;;;;;;;;;;5049767;28;20446;-68
2023/02/17 02:33:35;;;;;;;2.57;2.00;;;;;;;;;;5050661;28;20803;-68
2023/02/17 02:36:05;;;;;;;3.23;2.20;;;;;;;;;;5049923;28;20950;-68
2023/02/17 02:38:36;;;;;;;4.83;2.00;;;;;;;;;;5050114;28;20450;-68
2023/02/17 02:41:05;;;;;;;2.57;2.00;;;;;;;;;;5049439;28;20470;-67
2023/02/17 02:43:32;;;;;;;3.53;2.23;;;;;;;;;;5051974;28;20942;-67
2023/02/17 02:45:59;;;;;;;1.97;1.27;;;;;;;;;;5053658;28;20504;-67
2023/02/17 02:48:26;;;;;;;5.00;2.70;;;;;;;;;;5053725;28;20462;-67
2023/02/17 02:51:08;;;;;;;4.20;2.20;;;;;;;;;;5053328;28;20448;-67
2023/02/17 02:53:49;;;;;;;2.70;1.60;;;;;;;;;;5051599;28;20454;-67
2023/02/17 02:56:23;;;;;;;2.40;2.00;;;;;;;;;;5053945;28;20446;-66
2023/02/17 02:58:52;;;;;;;2.23;2.03;;;;;;;;;;5053643;28;20449;-67
2023/02/17 03:01:22;;;;;;;3.63;1.53;;;;;;;;;;5053708;28;20449;-67
2023/02/17 03:03:53;;;;;;;2.57;1.60;;;;;;;;;;5053593;28;20803;-67
2023/02/17 03:06:22;;;;;;;2.37;1.37;;;;;;;;;;5053487;28;20470;-67
2023/02/17 03:08:53;;;;;;;3.30;2.00;;;;;;;;;;5053287;28;20569;-67
2023/02/17 03:11:31;;;;;;;3.43;2.13;;;;;;;;;;5053240;28;20449;-67
2023/02/17 03:14:00;;;;;;;6.27;2.67;;;;;;;;;;5053348;28;20441;-67
2023/02/17 03:16:27;;;;;;;4.37;1.93;;;;;;;;;;5053740;28;20450;-67
2023/02/17 03:18:54;;;;;;;2.60;1.57;;;;;;;;;;5053288;28;20457;-67
2023/02/17 03:21:21;;;;;;;2.63;1.80;;;;;;;;;;5052650;28;20525;-66
2023/02/17 03:23:48;;;;;;;5.87;2.50;;;;;;;;;;5053183;28;20449;-67
2023/02/17 03:26:17;;;;;;;3.23;1.93;;;;;;;;;;5053082;28;20488;-67
2023/02/17 03:28:44;;;;;;;3.10;1.70;;;;;;;;;;5053066;28;20451;-66
2023/02/17 03:31:11;;;;;;;3.80;2.03;;;;;;;;;;5053159;28;20454;-67
2023/02/17 03:33:38;;;;;;;2.70;1.80;;;;;;;;;;5053552;28;20450;-67
2023/02/17 03:36:06;;;;;;;2.40;1.87;;;;;;;;;;5053555;28;20450;-67
2023/02/17 03:38:33;;;;;;;3.90;1.67;;;;;;;;;;5052919;28;20458;-67
2023/02/17 03:41:00;;;;;;;1.70;1.60;;;;;;;;;;5052391;28;20665;-67
2023/02/17 03:43:29;;;;;;;1.80;1.70;;;;;;;;;;5052931;28;20443;-67
2023/02/17 03:45:56;;;;;;;6.30;2.10;;;;;;;;;;5052539;28;20525;-68
2023/02/17 03:48:23;;;;;;;3.00;1.57;;;;;;;;;;5053049;28;20442;-68
2023/02/17 03:50:50;;;;;;;2.60;2.00;;;;;;;;;;5051996;28;20954;-68
2023/02/17 03:53:17;;;;;;;2.70;1.87;;;;;;;;;;5052819;28;20455;-68
2023/02/17 03:55:44;;;;;;;3.17;1.90;;;;;;;;;;5052275;28;20458;-68
2023/02/17 03:58:11;;;;;;;2.77;2.47;;;;;;;;;;5052841;28;20446;-67
2023/02/17 04:00:40;;;;;;;4.97;2.20;;;;;;;;;;5051656;28;20523;-66
2023/02/17 04:03:07;;;;;;;2.73;1.83;;;;;;;;;;5052298;28;20981;-68
2023/02/17 04:05:34;;;;;;;2.40;2.00;;;;;;;;;;5052609;28;20449;-67
2023/02/17 04:08:01;;;;;;;7.73;3.13;;;;;;;;;;5051474;28;20508;-67
2023/02/17 04:10:28;;;;;;;3.07;1.80;;;;;;;;;;5051818;28;20453;-67
2023/02/17 04:12:55;;;;;;;2.50;2.10;;;;;;;;;;5051809;28;20508;-67
2023/02/17 04:15:22;;;;;;;3.63;1.83;;;;;;;;;;5052657;28;20442;-67
2023/02/17 04:17:51;;;;;;;3.33;1.53;;;;;;;;;;5052111;28;20450;-67
2023/02/17 04:20:18;;;;;;;4.90;2.27;;;;;;;;;;5051889;28;20450;-68
2023/02/17 04:22:45;;;;;;;7.83;2.07;;;;;;;;;;5051440;28;20444;-67
2023/02/17 04:25:12;;;;;;;1.97;1.67;;;;;;;;;;5052196;28;20439;-68
2023/02/17 04:27:40;;;;;;;2.00;1.80;;;;;;;;;;5052296;28;20503;-68
2023/02/17 04:30:07;;;;;;;2.10;1.67;;;;;;;;;;5051860;28;20464;-68
2023/02/17 04:32:34;;;;;;;4.77;2.10;;;;;;;;;;5052433;28;20802;-68
2023/02/17 04:35:03;;;;;;;3.90;1.90;;;;;;;;;;5051411;28;20446;-68
2023/02/17 04:37:30;;;;;;;3.30;2.40;;;;;;;;;;5052065;28;20458;-67
2023/02/17 04:39:57;;;;;;;4.00;2.27;;;;;;;;;;5050798;28;20457;-68
2023/02/17 04:42:24;;;;;;;2.17;1.80;;;;;;;;;;5050882;28;20967;-67
2023/02/17 04:44:51;;;;;;;2.43;1.80;;;;;;;;;;5051480;28;20474;-67
2023/02/17 04:47:18;;;;;;;2.93;1.70;;;;;;;;;;5051542;28;20839;-68
2023/02/17 04:49:45;;;;;;;4.40;2.73;;;;;;;;;;5051098;28;20454;-68
2023/02/17 04:52:14;;;;;;;2.70;2.30;;;;;;;;;;5051801;28;20457;-68
2023/02/17 04:54:41;;;;;;;2.63;2.10;;;;;;;;;;5051238;28;20450;-66
2023/02/17 04:57:08;;;;;;;3.17;1.90;;;;;;;;;;5051778;28;20461;-68
2023/02/17 04:59:35;;;;;;;2.50;1.60;;;;;;;;;;5050987;28;20450;-67
2023/02/17 05:02:02;;;;;;;3.00;2.00;;;;;;;;;;5051223;28;20447;-68
2023/02/17 05:04:29;;;;;;;2.90;1.90;;;;;;;;;;5050414;28;20446;-69
2023/02/17 05:06:57;;;;;;;1.63;1.50;;;;;;;;;;5050156;28;20500;-67
2023/02/17 05:09:25;;;;;;;2.77;2.00;;;;;;;;;;5051174;28;20478;-67
2023/02/17 05:11:52;;;;;;;4.03;1.90;;;;;;;;;;5050673;28;20450;-68
2023/02/17 05:14:19;;;;;;;2.77;2.43;;;;;;;;;;5050869;28;20469;-67
2023/02/17 05:16:46;;;;;;;2.50;1.87;;;;;;;;;;5050992;28;20469;-67
2023/02/17 05:19:13;;;;;;;3.47;1.80;;;;;;;;;;5051375;28;20450;-69
2023/02/17 05:21:41;;;;;;;3.27;2.07;;;;;;;;;;5051196;28;20818;-67
2023/02/17 05:24:08;;;;;;;4.17;2.10;;;;;;;;;;5051215;28;20461;-70
2023/02/17 05:26:36;;;;;;;1.60;1.47;;;;;;;;;;5051236;28;20454;-70
2023/02/17 05:29:03;;;;;;;3.33;2.57;;;;;;;;;;5050760;28;20447;-69
2023/02/17 05:31:30;;;;;;;2.53;2.17;;;;;;;;;;5051301;28;20447;-69
2023/02/17 05:33:58;;;;;;;3.87;1.97;;;;;;;;;;5050064;28;20457;-70
2023/02/17 05:36:25;;;;;;;2.33;1.53;;;;;;;;;;5051037;28;20446;-66
2023/02/17 05:38:52;;;;;;;3.60;2.40;;;;;;;;;;5046681;28;20496;-67
2023/02/17 05:41:20;;;;;;;2.33;2.13;;;;;;;;;;5049871;28;20442;-67
2023/02/17 05:43:48;;;;;;;2.50;1.70;;;;;;;;;;5050254;28;20458;-70
2023/02/17 05:46:15;;;;;;;3.30;2.63;;;;;;;;;;5051338;28;20443;-69
2023/02/17 05:48:43;;;;;;;4.63;2.47;;;;;;;;;;5050507;28;20492;-69
2023/02/17 05:51:12;;;;;;;3.47;2.40;;;;;;;;;;5049821;28;20446;-69
2023/02/17 05:53:40;;;;;;;3.00;2.03;;;;;;;;;;5050594;28;20465;-69
2023/02/17 05:56:07;;;;;;;3.23;2.03;;;;;;;;;;5050893;28;20462;-69
2023/02/17 05:58:34;;;;;;;3.63;2.13;;;;;;;;;;5050897;28;20453;-69
2023/02/17 06:01:02;;;;;;;4.00;2.37;;;;;;;;;;5049828;28;20458;-69
2023/02/17 06:03:30;;;;;;;3.40;2.00;;;;;;;;;;5050998;28;20442;-69
2023/02/17 06:05:57;;;;;;;3.23;1.47;;;;;;;;;;5050591;28;20451;-69
2023/02/17 06:08:24;;;;;;;3.43;1.77;;;;;;;;;;5037519;28;20501;-69
2023/02/17 06:10:53;;;;;;;2.57;1.80;;;;;;;;;;5049609;28;20450;-69
2023/02/17 06:13:20;;;;;;;2.33;2.10;;;;;;;;;;5051067;28;20442;-69
2023/02/17 06:15:47;;;;;;;2.40;1.80;;;;;;;;;;5050240;28;20454;-69
2023/02/17 06:18:15;;;;;;;3.90;1.70;;;;;;;;;;5054249;28;20832;-69
2023/02/17 06:20:42;;;;;;;3.43;1.70;;;;;;;;;;5054068;28;20446;-69
2023/02/17 06:23:10;;;;;;;5.30;2.20;;;;;;;;;;5055303;28;20469;-69
2023/02/17 06:25:37;;;;;;;4.13;2.97;;;;;;;;;;5054455;28;20466;-69
2023/02/17 06:28:04;;;;;;;3.43;2.03;;;;;;;;;;5054388;28;20486;-69
2023/02/17 06:30:31;;;;;;;5.33;2.27;;;;;;;;;;5054099;28;20446;-69
2023/02/17 06:32:59;;;;;;;3.27;1.77;;;;;;;;;;5054062;28;20954;-69
2023/02/17 06:35:27;;;;;;;3.43;2.03;;;;;;;;;;5054772;28;20454;-69
2023/02/17 06:37:54;;;;;;;3.30;1.40;;;;;;;;;;5054334;28;20548;-69
2023/02/17 06:40:21;;;;;;;4.10;1.87;;;;;;;;;;5054153;28;20450;-69
2023/02/17 06:42:48;;;;;;;3.53;1.60;;;;;;;;;;5054223;28;20457;-69
2023/02/17 06:45:16;;;;;;;3.40;1.70;;;;;;;;;;5054321;28;20457;-69
2023/02/17 06:47:43;;;;;;;2.87;1.70;;;;;;;;;;5053813;28;20489;-69
2023/02/17 06:50:10;;;;;;;7.07;2.43;;;;;;;;;;5054134;28;20450;-69
2023/02/17 06:52:39;;;;;;;4.10;1.87;;;;;;;;;;5054296;28;20458;-69
2023/02/17 06:55:06;;;;;;;3.03;1.87;;;;;;;;;;5054073;28;20949;-69
2023/02/17 06:57:33;;;;;;;2.03;1.57;;;;;;;;;;5054173;28;20840;-69
2023/02/17 07:00:00;;;;;;;2.53;1.53;;;;;;;;;;5053605;28;20790;-69
2023/02/17 07:02:28;;;;;;;4.50;2.13;;;;;;;;;;5053690;28;20446;-69
2023/02/17 07:04:55;;;;;;;3.70;1.87;;;;;;;;;;5053415;28;20816;-69
2023/02/17 07:07:22;;;;;;;2.70;1.50;;;;;;;;;;5054209;28;20492;-69
2023/02/17 07:09:50;;;;;;;3.93;2.00;;;;;;;;;;5052895;28;20478;-69
2023/02/17 07:12:17;;;;;;;2.07;1.67;;;;;;;;;;5053725;28;20454;-69
2023/02/17 07:14:44;;;;;;;2.80;2.20;;;;;;;;;;5053250;28;20453;-69
2023/02/17 07:17:11;;;;;;;4.47;2.63;;;;;;;;;;5054050;28;20468;-69
2023/02/17 07:19:39;;;;;;;6.53;1.97;;;;;;;;;;5054113;28;20453;-69
2023/02/17 07:22:06;;;;;;;4.30;1.83;;;;;;;;;;5053751;28;20457;-69
2023/02/17 07:24:33;;;;;;;3.53;2.10;;;;;;;;;;5053536;28;20450;-69
2023/02/17 07:27:02;;;;;;;5.10;1.63;;;;;;;;;;5053158;28;20464;-71
2023/02/17 07:29:29;;;;;;;2.87;1.70;;;;;;;;;;5052800;28;20446;-69
2023/02/17 07:31:56;;;;;;;2.60;2.13;;;;;;;;;;5052546;28;20462;-69
2023/02/17 07:34:23;;;;;;;2.37;1.97;;;;;;;;;;5053842;28;20446;-70
2023/02/17 07:36:50;;;;;;;2.27;1.77;;;;;;;;;;5053120;28;20474;-69
2023/02/17 07:39:17;;;;;;;1.63;1.47;;;;;;;;;;5053346;28;20931;-69
2023/02/17 07:41:45;;;;;;;2.33;1.70;;;;;;;;;;5052447;28;20457;-69
2023/02/17 07:44:14;;;;;;;3.50;2.43;;;;;;;;;;5053844;28;20448;-69
2023/02/17 07:46:41;;;;;;;3.00;1.43;;;;;;;;;;5052779;28;20454;-69
2023/02/17 07:49:08;;;;;;;2.80;1.73;;;;;;;;;;5053428;28;20490;-70
2023/02/17 07:51:35;;;;;;;1.57;1.37;;;;;;;;;;5053050;28;20450;-70
2023/02/17 07:54:02;;;;;;;1.50;1.10;;;;;;;;;;5052557;28;20443;-70
2023/02/17 07:56:29;;;;;;;2.23;1.50;;;;;;;;;;5053163;28;20450;-69
2023/02/17 07:58:56;;;;;;;2.77;1.63;;;;;;;;;;5052596;28;20454;-70
2023/02/17 08:01:25;;;;;;;1.63;1.23;;;;;;;;;;5052819;28;20438;-70
2023/02/17 08:03:53;;;;;;;5.33;1.40;;;;;;;;;;5052626;28;20950;-70
2023/02/17 08:06:21;;;;;;;6.10;1.53;;;;;;;;;;5053183;28;20447;-70
2023/02/17 08:14:30;;;;;;;1.70;1.60;;;;;;;;;;4991273;28;20455;-70
2023/02/17 08:16:58;;;;;;;3.70;2.00;;;;;;;;;;5037942;28;20453;-70
2023/02/17 08:19:26;;;;;;;2.20;1.50;;;;;;;;;;5052745;28;20458;-70
2023/02/17 08:21:53;;;;;;;1.93;1.17;;;;;;;;;;5051854;28;20461;-70
2023/02/17 08:24:20;;;;;;;1.70;1.60;;;;;;;;;;5052515;28;20939;-69
2023/02/17 08:26:47;;;;;;;3.20;1.30;;;;;;;;;;5052285;28;20450;-69
2023/02/17 08:29:14;;;;;;;2.13;1.30;;;;;;;;;;5052572;28;20496;-69
2023/02/17 08:31:42;;;;;;;2.40;1.77;;;;;;;;;;5051648;28;20442;-69
2023/02/17 08:34:12;;;;;;;2.53;2.20;;;;;;;;;;5052706;28;20446;-70
2023/02/17 08:36:39;;;;;;;1.90;1.40;;;;;;;;;;5052301;28;20466;-70
2023/02/17 08:39:07;;;;;;;1.87;1.10;;;;;;;;;;5052478;28;20454;-69
2023/02/17 08:41:35;;;;;;;2.23;2.00;;;;;;;;;;5050696;28;20442;-69
2023/02/17 08:44:04;;;;;;;2.63;1.83;;;;;;;;;;5051724;28;20450;-70
2023/02/17 08:46:31;;;;;;;2.57;1.60;;;;;;;;;;5052384;28;20447;-70
2023/02/17 08:48:59;;;;;;;1.10;0.90;;;;;;;;;;5051688;28;20540;-70
2023/02/17 08:51:27;;;;;;;1.77;1.27;;;;;;;;;;5051886;28;20457;-70
2023/02/17 08:53:56;;;;;;;3.80;2.07;;;;;;;;;;5051555;28;20447;-70
2023/02/17 08:56:23;;;;;;;2.33;1.80;;;;;;;;;;5052071;28;20462;-70
2023/02/17 08:58:51;;;;;;;1.80;1.50;;;;;;;;;;5038265;28;20454;-70
2023/02/17 09:01:19;;;;;;;2.43;1.80;;;;;;;;;;5051628;28;20453;-69
2023/02/17 09:03:47;;;;;;;3.30;1.40;;;;;;;;;;5051782;28;20446;-70
2023/02/17 09:06:14;;;;;;;2.10;1.40;;;;;;;;;;5051655;28;20455;-70
2023/02/17 09:08:43;;;;;;;2.50;1.30;;;;;;;;;;5051250;28;20500;-69
2023/02/17 09:11:10;;;;;;;2.70;1.73;;;;;;;;;;5051447;28;20450;-70
2023/02/17 09:13:37;;;;;;;2.83;1.83;;;;;;;;;;5051899;28;20461;-70
2023/02/17 09:16:05;;;;;;;1.17;1.07;;;;;;;;;;5051190;28;20446;-70
2023/02/17 09:18:32;;;;;;;4.23;1.40;;;;;;;;;;5051798;28;20497;-70
2023/02/17 09:20:59;;;;;;;1.53;1.23;;;;;;;;;;5050390;28;20460;-70
2023/02/17 09:23:27;;;;;;;1.57;1.23;;;;;;;;;;5051703;28;20484;-70
2023/02/17 09:26:04;;;;;;;1.77;1.40;;;;;;;;;;5050924;28;20442;-70
2023/02/17 09:28:31;;;;;;;1.70;1.20;;;;;;;;;;5051575;28;20469;-70
2023/02/17 09:30:58;;;;;;;1.53;1.43;;;;;;;;;;5050564;28;20454;-69
2023/02/17 09:33:26;;;;;;;2.13;1.57;;;;;;;;;;5051586;28;20458;-70
2023/02/17 09:35:53;;;;;;;1.60;1.40;;;;;;;;;;5050882;28;20454;-70
2023/02/17 09:38:20;;;;;;;2.03;1.37;;;;;;;;;;5051114;28;20541;-70
2023/02/17 09:40:48;;;;;;;1.23;1.10;;;;;;;;;;5050462;28;20450;-69
2023/02/17 09:43:18;;;;;;;1.73;1.57;;;;;;;;;;5051706;28;20818;-69
2023/02/17 09:45:51;;;;;;;2.90;1.53;;;;;;;;;;5050900;28;20434;-69
2023/02/17 09:48:19;;;;;;;1.83;1.40;;;;;;;;;;5051341;28;20478;-69
2023/02/17 09:50:49;;;;;;;1.73;1.17;;;;;;;;;;5050144;28;20503;-70
2023/02/17 09:53:18;;;;;;;1.97;1.00;;;;;;;;;;5050587;28;20446;-69
2023/02/17 09:55:48;;;;;;;1.83;1.17;;;;;;;;;;5050652;28;20469;-70
2023/02/17 09:58:19;;;;;;;1.53;0.77;;;;;;;;;;5050944;28;20456;-70
2023/02/17 10:00:47;;;;;;;1.97;1.40;;;;;;;;;;5050056;28;20505;-70
2023/02/17 10:03:16;;;;;;;1.50;1.30;;;;;;;;;;5051213;28;20849;-70
2023/02/17 10:05:46;;;;;;;2.90;1.10;;;;;;;;;;5050651;28;20794;-70
2023/02/17 10:08:15;;;;;;;1.27;1.10;;;;;;;;;;5050897;28;20490;-69
2023/02/17 10:10:45;;;;;;;4.77;1.30;;;;;;;;;;5050076;28;20800;-70
2023/02/17 10:13:14;;;;;;;1.47;1.03;;;;;;;;;;5050956;28;20816;-69
2023/02/17 10:15:45;;;;;;;2.53;1.20;;;;;;;;;;5050490;28;20492;-70
2023/02/17 10:18:14;;;;;;;2.50;1.17;;;;;;;;;;5051210;28;20898;-70
2023/02/17 10:20:42;;;;;;;1.47;0.90;;;;;;;;;;5050038;28;20813;-69
2023/02/17 10:23:13;;;;;;;1.20;0.80;;;;;;;;;;5051053;28;20446;-70
2023/02/17 10:25:50;;;;;;;1.43;0.97;;;;;;;;;;5051000;28;20457;-67
2023/02/17 10:28:19;;;;;;;1.67;1.20;;;;;;;;;;5051019;28;20484;-70
2023/02/17 10:30:51;;;;;;;2.40;2.00;;;;;;;;;;5049973;28;20500;-70
2023/02/17 10:33:22;;;;;;;1.80;1.60;;;;;;;;;;5051016;28;20793;-70
2023/02/17 10:35:50;;;;;;;1.63;1.07;;;;;;;;;;5050364;28;20450;-70
2023/02/17 10:38:18;;;;;;;2.70;1.10;;;;;;;;;;5050612;28;20458;-70
2023/02/17 10:40:47;;;;;;;1.77;1.30;;;;;;;;;;5049666;28;20450;-70
2023/02/17 10:43:20;;;;;;;1.30;0.90;;;;;;;;;;5050545;28;20446;-70
2023/02/17 10:45:50;;;;;;;1.00;0.83;;;;;;;;;;5050313;28;20450;-70
2023/02/17 10:48:20;;;;;;;2.23;1.23;;;;;;;;;;5051149;28;20446;-70
2023/02/17 10:50:47;;;;;;;2.33;1.00;;;;;;;;;;5050019;28;20466;-70
2023/02/17 10:53:16;;;;;;;1.90;1.33;;;;;;;;;;5050342;28;20931;-70
2023/02/17 10:55:49;;;;;;;1.80;1.10;;;;;;;;;;5050184;28;20447;-69
2023/02/17 10:58:22;;;;;;;1.37;1.20;;;;;;;;;;5050682;28;20446;-70
2023/02/17 11:00:55;;;;;;;2.80;1.23;;;;;;;;;;5049561;28;20434;-70
2023/02/17 11:03:23;;;;;;;1.30;1.00;;;;;;;;;;5050616;28;20522;-70
2023/02/17 11:05:54;;;;;;;1.13;1.00;;;;;;;;;;5053853;28;20450;-70
2023/02/17 11:08:26;;;;;;;1.20;0.90;;;;;;;;;;5053523;28;20474;-70
2023/02/17 11:11:00;;;;;;;3.10;1.10;;;;;;;;;;5053168;28;20442;-70
2023/02/17 11:13:31;;;;;;;2.90;1.33;;;;;;;;;;5054318;28;20435;-70
2023/02/17 11:15:59;;;;;;;0.80;0.77;;;;;;;;;;5053348;28;20476;-70
2023/02/17 11:18:28;;;;;;;1.43;0.80;;;;;;;;;;5054155;28;20446;-70
2023/02/17 11:21:01;;;;;;;1.70;0.90;;;;;;;;;;5053099;28;20813;-70
2023/02/17 11:23:28;;;;;;;0.83;0.70;;;;;;;;;;5054194;28;20445;-70
2023/02/17 11:25:56;;;;;;;0.70;0.63;;;;;;;;;;5053192;28;20452;-70
2023/02/17 11:28:24;;;;;;;0.87;0.70;;;;;;;;;;5053866;28;20736;-70
2023/02/17 11:30:53;;;;;;;1.53;0.80;;;;;;;;;;5052528;28;20504;-70
2023/02/17 11:33:28;;;;;;;1.50;0.83;;;7.40;1.00;;;;;;5053653;28;20442;-70
2023/02/17 11:35:55;;;;;;;2.13;0.90;;;;;;;;;;5052810;28;20441;-70
2023/02/17 11:38:24;;;;;;;2.30;0.70;;;;;;;;;;5053903;28;20461;-70
2023/02/17 11:40:56;;;;;;;0.80;0.63;;;;;;;;;;5052477;28;20464;-70
2023/02/17 11:43:23;;;;;;;2.80;0.80;;;;;;;;;;5053225;28;20442;-70
2023/02/17 11:45:54;;;;;;;0.90;0.70;;;;;;;;;;5053073;28;20450;-70
2023/02/17 11:48:32;;;;;;;1.13;0.80;;;;;;;;;;5053584;28;20453;-70
2023/02/17 11:51:03;;;;;;;2.47;1.23;;;;;;;;;;5052629;28;20445;-70
2023/02/17 11:53:40;;;;;;;1.30;0.80;;;;;;;;;;5053522;28;20458;-70
2023/02/17 11:56:12;;;;;;;1.27;0.80;;;;;;;;;;5053528;28;20450;-70
2023/02/17 11:58:54;;;;;;;1.77;1.00;;;;;;;;;;5053297;28;20446;-70
2023/02/17 12:01:27;;;;;;;0.70;0.63;;;;;;;;;;5052982;28;20445;-70
2023/02/17 12:04:08;;;;;;;1.00;0.80;;;;;;;;;;5052824;28;20442;-70
2023/02/17 12:06:39;;;;;;;1.30;0.87;;;;;;;;;;5053219;28;20802;-70
2023/02/17 12:09:11;;;;;;;1.20;0.73;;;;;;;;;;5053391;28;20497;-70
2023/02/17 12:11:44;;;;;;;1.10;0.83;;;;;;;;;;5039595;28;20454;-70
2023/02/17 12:14:32;;;;;;;0.80;0.60;;;;;;;;;;5053062;28;20462;-70
2023/02/17 12:17:04;;;;;;;1.00;0.87;;;;;;;;;;5047808;28;20473;-70
2023/02/17 12:19:42;;;;;;;1.20;0.77;;;;;;;;;;5052450;28;20939;-70
2023/02/17 12:22:14;;;;;;;5.10;0.97;;;;;;;;;;5053135;28;20453;-71
2023/02/17 12:24:50;;;;;;;1.63;0.80;;;;;;;;;;5052364;28;20447;-69
2023/02/17 12:27:24;;;;;;;1.23;1.13;;;;;;;;;;5052723;28;20456;-70
2023/02/17 12:30:04;;;;;;;1.00;0.90;;;14.20;1.00;;;;;;5051554;28;20478;-70
2023/02/17 12:32:37;;;;;;;1.27;0.77;;;;;;;;;;5052706;28;20805;-70
2023/02/17 12:35:14;;;;;;;0.80;0.80;;;;;;;;;;5052100;28;20553;-70
2023/02/17 12:37:46;;;;;;;1.30;0.90;;;;;;;;;;5052154;28;20461;-69
2023/02/17 12:40:16;;;;;;;0.73;0.60;;;;;;;;;;5052123;28;20446;-70
2023/02/17 12:42:48;;;;;;;1.67;0.80;;;;;;;;;;5051854;28;20465;-70
2023/02/17 12:45:17;;;;;;;1.30;0.80;;;;;;;;;;5052535;28;20815;-70
2023/02/17 12:47:48;;;;;;;0.97;0.87;;;;;;;;;;5051928;28;20443;-70
2023/02/17 12:50:20;;;;;;;1.13;0.70;;;;;;;;;;5052136;28;20470;-70
2023/02/17 12:52:49;;;;;;;1.27;1.00;;;;;;;;;;5051993;28;20450;-71
2023/02/17 12:55:18;;;;;;;0.90;0.73;;;;;;;;;;5052211;28;20446;-70
2023/02/17 12:57:48;;;;;;;1.97;1.00;;;;;;;;;;5051573;28;20454;-70
2023/02/17 13:00:18;;;;;;;1.83;0.60;;;;;;;;;;5051782;28;20549;-70
2023/02/17 13:02:46;;;;;;;1.07;0.70;;;;;;;;;;5051589;28;20438;-70
2023/02/17 13:05:18;;;;;;;1.80;1.30;;;;;;;;;;5051880;28;20521;-70
2023/02/17 13:07:50;;;;;;;1.00;0.90;;;;;;;;;;5051051;28;20458;-70
2023/02/17 13:10:19;;;;;;;1.20;0.80;;;;;;;;;;5051204;28;20553;-70
2023/02/17 13:12:56;;;;;;;0.90;0.60;;;;;;;;;;5050916;28;20461;-71
2023/02/17 13:15:28;;;;;;;1.20;0.70;;;;;;;;;;5051641;28;20485;-70
2023/02/17 13:17:56;;;;;;;2.93;0.73;;;;;;;;;;5050816;28;20450;-70
2023/02/17 13:20:40;;;;;;;0.80;0.50;;;;;;;;;;5050384;28;20538;-70
2023/02/17 13:23:12;;;;;;;1.23;0.63;;;;;;;;;;5047126;28;20525;-70
2023/02/17 13:25:39;;;;;;;1.10;0.83;;;;;;;;;;5051046;28;20442;-71
2023/02/17 13:28:33;;;;;;;1.73;0.83;;;;;;;;;;5050467;28;20474;-71
2023/02/17 13:31:08;;;;;;;1.60;0.80;;;;;;;;;;5050588;28;21390;-70
2023/02/17 13:33:42;;;;;;;1.47;0.80;;;;;;;;;;5051380;28;20451;-71
2023/02/17 13:36:12;;;;;;;0.80;0.70;;;;;;;;;;5050429;28;20439;-70
2023/02/17 13:38:41;;;;;;;1.00;0.80;;;;;;;;;;5050561;28;20462;-70
2023/02/17 13:41:14;;;;;;;0.87;0.80;;;;;;;;;;5050331;28;20443;-68
2023/02/17 13:43:42;;;;;;;0.90;0.70;;;;;;;;;;5049002;28;20444;-69
2023/02/17 13:46:14;;;;;;;2.30;0.80;;;;;;;;;;5050189;28;20464;-70
2023/02/17 13:48:41;;;;;;;1.57;1.00;;;;;;;;;;5050180;28;20434;-68
2023/02/17 13:51:24;;;;;;;1.03;0.57;;;;;;;;;;5050383;28;20486;-69
2023/02/17 13:53:52;;;;;;;0.83;0.67;;;;;;;;;;5050042;28;20473;-70
2023/02/17 13:56:25;;;;;;;0.70;0.50;;;;;;;;;;5050534;28;20513;-70
2023/02/17 13:58:52;;;;;;;1.17;0.70;;;;;;;;;;5042214;28;20458;-70
2023/02/17 14:01:20;;;;;;;1.07;0.63;;;;;;;;;;5049278;28;20446;-70
2023/02/17 14:03:49;;;;;;;1.50;0.90;;;;;;;;;;5049495;28;20865;-70
2023/02/17 14:06:22;;;;;;;0.80;0.60;;;;;;;;;;5050104;28;20454;-69
2023/02/17 14:08:49;;;;;;;1.00;0.70;;;;;;;;;;5045460;28;20489;-70
2023/02/17 14:11:19;;;;;;;1.07;0.70;;;;;;;;;;5049348;28;20488;-70
2023/02/17 14:13:47;;;;;;;1.13;0.80;;;;;;;;;;5049319;28;21747;-70
2023/02/17 14:16:35;;;;;;;1.00;0.90;;;;;;;;;;5050422;28;20443;-69
2023/02/17 14:19:03;;;;;;;1.40;1.30;;;;;;;;;;5044578;28;20458;-70
2023/02/17 14:21:30;;;;;;;1.07;0.90;;;;;;;;;;5048830;28;20469;-71
2023/02/17 14:23:58;;;;;;;4.43;3.03;;;;;;;;;;5049483;28;20442;-70
2023/02/17 14:26:32;;;;;;;1.43;0.80;;;;;;;;;;5049968;28;20450;-70
2023/02/17 14:29:00;;;;;;;1.00;0.77;;;;;;;;;;5049602;28;20450;-69
2023/02/17 14:31:28;;;;;;;2.50;1.00;;;;;;;;;;5050080;28;21031;-70
2023/02/17 14:33:57;;;;;;;1.77;1.00;;;13.70;1.00;;;;;;5049937;28;20447;-70
2023/02/17 14:36:36;;;;;;;1.30;0.90;;;15.00;1.00;;;;;;5050289;28;20442;-70
2023/02/17 14:39:05;;;;;;;2.03;1.17;;;15.00;1.00;;;;;;5052398;28;20446;-70
2023/02/17 14:41:34;;;;;;;1.10;0.90;;;14.90;1.00;;;;;;5053393;28;20453;-70
2023/02/17 14:44:01;;;;;;;1.17;0.67;;;;;;;;;;5053207;28;20464;-68
2023/02/17 14:46:28;;;;;;;2.73;1.10;;;;;;;;;;5054432;28;20442;-71
2023/02/17 14:48:55;;;;;;;0.90;0.60;;;;;;;;;;5053724;28;20453;-70
2023/02/17 14:51:24;;;;;;;0.97;0.83;;;14.70;1.00;;;;;;5053892;28;20478;-68
2023/02/17 14:53:51;;;;;;;1.47;1.00;;;14.30;1.00;;;;;;5053621;28;20446;-69
2023/02/17 14:56:23;;;;;;;1.77;1.30;;;14.20;1.00;;;;;;5047726;28;20993;-70
2023/02/17 14:58:52;;;;;;;2.27;1.30;;;14.30;1.00;;;;;;5051095;28;20447;-70